sensor_id;sensor_type;location;lat;lon;timestamp;P1;durP1;ratioP1;P2;durP2;ratioP2
31382;SDS011;18014;49.228;11.102;2023-11-21T00:01:01;3.17;;;2.00;;
31382;SDS011;18014;49.228;11.102;2023-11-21T00:05:05;5.03;;;2.20;;
31382;SDS011;18014;49.228;11.102;2023-11-21T00:07:09;2.40;;;1.52;;
31382;SDS011;18014;49.228;11.102;2023-11-21T00:09:10;6.00;;;1.95;;
31382;SDS011;18014;49.228;11.102;2023-11-21T00:11:12;2.10;;;1.55;;
31382;SDS011;18014;49.228;11.102;2023-11-21T00:13:14;5.65;;;1.98;;
31382;SDS011;18014;49.228;11.102;2023-11-21T00:15:15;3.83;;;1.52;;
31382;SDS011;18014;49.228;11.102;2023-11-21T00:17:16;3.88;;;1.85;;
31382;SDS011;18014;49.228;11.102;2023-11-21T00:19:17;5.45;;;1.58;;
31382;SDS011;18014;49.228;11.102;2023-11-21T00:21:18;3.75;;;1.63;;
31382;SDS011;18014;49.228;11.102;2023-11-21T00:23:19;3.55;;;1.75;;
31382;SDS011;18014;49.228;11.102;2023-11-21T00:25:19;4.72;;;1.65;;
31382;SDS011;18014;49.228;11.102;2023-11-21T00:27:20;3.10;;;1.38;;
31382;SDS011;18014;49.228;11.102;2023-11-21T00:29:21;1.85;;;1.35;;
31382;SDS011;18014;49.228;11.102;2023-11-21T00:31:22;4.32;;;1.77;;
31382;SDS011;18014;49.228;11.102;2023-11-21T00:33:23;3.75;;;1.13;;
31382;SDS011;18014;49.228;11.102;2023-11-21T00:35:25;3.60;;;1.50;;
31382;SDS011;18014;49.228;11.102;2023-11-21T00:37:26;3.70;;;1.50;;
31382;SDS011;18014;49.228;11.102;2023-11-21T00:39:27;4.53;;;1.48;;
31382;SDS011;18014;49.228;11.102;2023-11-21T00:41:28;2.70;;;1.30;;
31382;SDS011;18014;49.228;11.102;2023-11-21T00:43:28;4.22;;;1.20;;
31382;SDS011;18014;49.228;11.102;2023-11-21T00:45:29;5.18;;;1.70;;
31382;SDS011;18014;49.228;11.102;2023-11-21T00:47:30;3.25;;;1.60;;
31382;SDS011;18014;49.228;11.102;2023-11-21T00:49:31;3.72;;;1.38;;
31382;SDS011;18014;49.228;11.102;2023-11-21T00:51:32;4.78;;;1.48;;
31382;SDS011;18014;49.228;11.102;2023-11-21T00:53:33;3.80;;;1.40;;
31382;SDS011;18014;49.228;11.102;2023-11-21T00:55:34;6.38;;;1.80;;
31382;SDS011;18014;49.228;11.102;2023-11-21T00:57:35;7.82;;;1.83;;
31382;SDS011;18014;49.228;11.102;2023-11-21T00:59:37;4.72;;;1.52;;
31382;SDS011;18014;49.228;11.102;2023-11-21T01:01:38;5.18;;;1.77;;
31382;SDS011;18014;49.228;11.102;2023-11-21T01:03:39;2.00;;;1.40;;
31382;SDS011;18014;49.228;11.102;2023-11-21T01:05:40;2.35;;;1.40;;
31382;SDS011;18014;49.228;11.102;2023-11-21T01:07:41;1.83;;;1.30;;
31382;SDS011;18014;49.228;11.102;2023-11-21T01:09:42;7.03;;;2.58;;
31382;SDS011;18014;49.228;11.102;2023-11-21T01:11:44;5.85;;;2.03;;
31382;SDS011;18014;49.228;11.102;2023-11-21T01:13:46;3.70;;;1.70;;
31382;SDS011;18014;49.228;11.102;2023-11-21T01:15:47;4.22;;;1.05;;
31382;SDS011;18014;49.228;11.102;2023-11-21T01:17:48;3.92;;;1.40;;
31382;SDS011;18014;49.228;11.102;2023-11-21T01:19:49;4.45;;;1.33;;
31382;SDS011;18014;49.228;11.102;2023-11-21T01:21:50;3.38;;;1.42;;
31382;SDS011;18014;49.228;11.102;2023-11-21T01:23:52;4.18;;;2.15;;
31382;SDS011;18014;49.228;11.102;2023-11-21T01:25:56;4.72;;;2.20;;
31382;SDS011;18014;49.228;11.102;2023-11-21T01:27:57;3.38;;;1.58;;
31382;SDS011;18014;49.228;11.102;2023-11-21T01:29:58;4.05;;;1.27;;
31382;SDS011;18014;49.228;11.102;2023-11-21T01:31:59;2.80;;;1.50;;
31382;SDS011;18014;49.228;11.102;2023-11-21T01:34:00;6.18;;;1.13;;
31382;SDS011;18014;49.228;11.102;2023-11-21T01:36:01;6.43;;;1.80;;
31382;SDS011;18014;49.228;11.102;2023-11-21T01:38:02;2.67;;;1.25;;
31382;SDS011;18014;49.228;11.102;2023-11-21T01:40:03;3.17;;;1.23;;
31382;SDS011;18014;49.228;11.102;2023-11-21T01:42:09;3.80;;;1.38;;
31382;SDS011;18014;49.228;11.102;2023-11-21T01:44:12;4.43;;;1.60;;
31382;SDS011;18014;49.228;11.102;2023-11-21T01:46:13;6.53;;;1.42;;
31382;SDS011;18014;49.228;11.102;2023-11-21T01:48:15;3.65;;;1.63;;
31382;SDS011;18014;49.228;11.102;2023-11-21T01:50:16;5.25;;;1.70;;
31382;SDS011;18014;49.228;11.102;2023-11-21T01:52:18;2.15;;;1.40;;
31382;SDS011;18014;49.228;11.102;2023-11-21T01:54:19;2.80;;;1.20;;
31382;SDS011;18014;49.228;11.102;2023-11-21T01:56:21;3.28;;;1.33;;
31382;SDS011;18014;49.228;11.102;2023-11-21T01:58:22;4.63;;;1.60;;
31382;SDS011;18014;49.228;11.102;2023-11-21T02:00:23;5.47;;;1.25;;
31382;SDS011;18014;49.228;11.102;2023-11-21T02:02:25;4.00;;;1.75;;
31382;SDS011;18014;49.228;11.102;2023-11-21T02:04:26;2.22;;;1.35;;
31382;SDS011;18014;49.228;11.102;2023-11-21T02:06:27;5.72;;;1.42;;
31382;SDS011;18014;49.228;11.102;2023-11-21T02:08:31;3.17;;;1.05;;
31382;SDS011;18014;49.228;11.102;2023-11-21T02:10:32;4.18;;;1.10;;
31382;SDS011;18014;49.228;11.102;2023-11-21T02:12:33;2.95;;;1.35;;
31382;SDS011;18014;49.228;11.102;2023-11-21T02:14:38;4.78;;;1.40;;
31382;SDS011;18014;49.228;11.102;2023-11-21T02:16:39;4.82;;;1.25;;
31382;SDS011;18014;49.228;11.102;2023-11-21T02:18:40;4.20;;;1.40;;
31382;SDS011;18014;49.228;11.102;2023-11-21T02:20:41;5.55;;;1.33;;
31382;SDS011;18014;49.228;11.102;2023-11-21T02:22:50;4.63;;;1.48;;
31382;SDS011;18014;49.228;11.102;2023-11-21T02:24:57;4.57;;;1.30;;
31382;SDS011;18014;49.228;11.102;2023-11-21T02:26:58;1.70;;;0.90;;
31382;SDS011;18014;49.228;11.102;2023-11-21T02:29:00;2.47;;;1.45;;
31382;SDS011;18014;49.228;11.102;2023-11-21T02:31:01;3.85;;;1.10;;
31382;SDS011;18014;49.228;11.102;2023-11-21T02:33:04;6.15;;;1.67;;
31382;SDS011;18014;49.228;11.102;2023-11-21T02:35:06;4.47;;;1.10;;
31382;SDS011;18014;49.228;11.102;2023-11-21T02:37:08;5.20;;;1.52;;
31382;SDS011;18014;49.228;11.102;2023-11-21T02:39:10;3.25;;;1.45;;
31382;SDS011;18014;49.228;11.102;2023-11-21T02:41:11;3.35;;;1.58;;
31382;SDS011;18014;49.228;11.102;2023-11-21T02:43:12;3.38;;;1.35;;
31382;SDS011;18014;49.228;11.102;2023-11-21T02:45:13;2.65;;;1.10;;
31382;SDS011;18014;49.228;11.102;2023-11-21T02:47:18;6.78;;;1.80;;
31382;SDS011;18014;49.228;11.102;2023-11-21T02:49:19;2.53;;;1.25;;
31382;SDS011;18014;49.228;11.102;2023-11-21T02:51:20;1.65;;;1.00;;
31382;SDS011;18014;49.228;11.102;2023-11-21T02:53:21;6.05;;;1.13;;
31382;SDS011;18014;49.228;11.102;2023-11-21T02:55:24;2.92;;;0.88;;
31382;SDS011;18014;49.228;11.102;2023-11-21T02:57:26;4.07;;;1.23;;
31382;SDS011;18014;49.228;11.102;2023-11-21T02:59:27;7.70;;;1.20;;
31382;SDS011;18014;49.228;11.102;2023-11-21T03:01:28;4.85;;;1.00;;
31382;SDS011;18014;49.228;11.102;2023-11-21T03:03:29;4.15;;;1.23;;
31382;SDS011;18014;49.228;11.102;2023-11-21T03:05:30;2.15;;;1.13;;
31382;SDS011;18014;49.228;11.102;2023-11-21T03:07:31;3.28;;;0.90;;
31382;SDS011;18014;49.228;11.102;2023-11-21T03:09:32;4.85;;;1.17;;
31382;SDS011;18014;49.228;11.102;2023-11-21T03:11:33;2.80;;;1.08;;
31382;SDS011;18014;49.228;11.102;2023-11-21T03:13:33;1.73;;;0.93;;
31382;SDS011;18014;49.228;11.102;2023-11-21T03:15:34;4.65;;;1.10;;
31382;SDS011;18014;49.228;11.102;2023-11-21T03:17:35;2.00;;;1.00;;
31382;SDS011;18014;49.228;11.102;2023-11-21T03:19:36;3.05;;;1.17;;
31382;SDS011;18014;49.228;11.102;2023-11-21T03:21:37;3.97;;;1.00;;
31382;SDS011;18014;49.228;11.102;2023-11-21T03:23:38;2.38;;;1.27;;
31382;SDS011;18014;49.228;11.102;2023-11-21T03:25:39;3.55;;;1.20;;
31382;SDS011;18014;49.228;11.102;2023-11-21T03:27:40;1.30;;;1.20;;
31382;SDS011;18014;49.228;11.102;2023-11-21T03:29:41;2.20;;;0.93;;
31382;SDS011;18014;49.228;11.102;2023-11-21T03:31:42;1.35;;;1.10;;
31382;SDS011;18014;49.228;11.102;2023-11-21T03:33:43;3.50;;;1.27;;
31382;SDS011;18014;49.228;11.102;2023-11-21T03:35:45;3.07;;;1.20;;
31382;SDS011;18014;49.228;11.102;2023-11-21T03:37:46;2.25;;;0.93;;
31382;SDS011;18014;49.228;11.102;2023-11-21T03:39:48;1.77;;;0.95;;
31382;SDS011;18014;49.228;11.102;2023-11-21T03:41:49;1.95;;;0.90;;
31382;SDS011;18014;49.228;11.102;2023-11-21T03:43:51;2.88;;;1.25;;
31382;SDS011;18014;49.228;11.102;2023-11-21T03:45:52;5.07;;;1.08;;
31382;SDS011;18014;49.228;11.102;2023-11-21T03:47:53;3.92;;;1.27;;
31382;SDS011;18014;49.228;11.102;2023-11-21T03:49:54;1.60;;;1.10;;
31382;SDS011;18014;49.228;11.102;2023-11-21T03:51:55;2.20;;;1.08;;
31382;SDS011;18014;49.228;11.102;2023-11-21T03:53:56;1.77;;;1.00;;
31382;SDS011;18014;49.228;11.102;2023-11-21T03:55:57;3.28;;;1.70;;
31382;SDS011;18014;49.228;11.102;2023-11-21T03:57:58;5.25;;;1.25;;
31382;SDS011;18014;49.228;11.102;2023-11-21T03:59:59;3.50;;;1.30;;
31382;SDS011;18014;49.228;11.102;2023-11-21T04:02:00;1.60;;;1.33;;
31382;SDS011;18014;49.228;11.102;2023-11-21T04:04:01;2.65;;;1.23;;
31382;SDS011;18014;49.228;11.102;2023-11-21T04:06:02;3.58;;;1.65;;
31382;SDS011;18014;49.228;11.102;2023-11-21T04:08:03;1.55;;;1.30;;
31382;SDS011;18014;49.228;11.102;2023-11-21T04:10:05;2.92;;;1.50;;
31382;SDS011;18014;49.228;11.102;2023-11-21T04:12:08;2.42;;;1.15;;
31382;SDS011;18014;49.228;11.102;2023-11-21T04:14:09;1.40;;;1.10;;
31382;SDS011;18014;49.228;11.102;2023-11-21T04:16:10;3.45;;;1.92;;
31382;SDS011;18014;49.228;11.102;2023-11-21T04:18:11;2.70;;;1.50;;
31382;SDS011;18014;49.228;11.102;2023-11-21T04:20:12;2.55;;;1.48;;
31382;SDS011;18014;49.228;11.102;2023-11-21T04:22:13;2.65;;;1.50;;
31382;SDS011;18014;49.228;11.102;2023-11-21T04:24:14;4.05;;;1.73;;
31382;SDS011;18014;49.228;11.102;2023-11-21T04:26:15;7.03;;;2.10;;
31382;SDS011;18014;49.228;11.102;2023-11-21T04:28:16;3.50;;;2.25;;
31382;SDS011;18014;49.228;11.102;2023-11-21T04:30:17;6.15;;;2.20;;
31382;SDS011;18014;49.228;11.102;2023-11-21T04:32:18;2.40;;;1.77;;
31382;SDS011;18014;49.228;11.102;2023-11-21T04:34:19;8.35;;;2.50;;
31382;SDS011;18014;49.228;11.102;2023-11-21T04:36:20;2.78;;;2.10;;
31382;SDS011;18014;49.228;11.102;2023-11-21T04:38:21;5.65;;;2.55;;
31382;SDS011;18014;49.228;11.102;2023-11-21T04:40:22;4.60;;;2.75;;
31382;SDS011;18014;49.228;11.102;2023-11-21T04:42:23;4.10;;;2.90;;
31382;SDS011;18014;49.228;11.102;2023-11-21T04:44:24;5.15;;;3.38;;
31382;SDS011;18014;49.228;11.102;2023-11-21T04:46:25;7.28;;;2.90;;
31382;SDS011;18014;49.228;11.102;2023-11-21T04:48:26;5.53;;;2.83;;
31382;SDS011;18014;49.228;11.102;2023-11-21T04:50:27;3.97;;;2.47;;
31382;SDS011;18014;49.228;11.102;2023-11-21T04:52:28;3.42;;;2.03;;
31382;SDS011;18014;49.228;11.102;2023-11-21T04:54:30;4.85;;;2.45;;
31382;SDS011;18014;49.228;11.102;2023-11-21T04:56:31;4.97;;;2.38;;
31382;SDS011;18014;49.228;11.102;2023-11-21T04:58:32;5.53;;;2.30;;
31382;SDS011;18014;49.228;11.102;2023-11-21T05:00:33;5.65;;;2.88;;
31382;SDS011;18014;49.228;11.102;2023-11-21T05:02:34;4.13;;;2.75;;
31382;SDS011;18014;49.228;11.102;2023-11-21T05:04:35;5.40;;;2.78;;
31382;SDS011;18014;49.228;11.102;2023-11-21T05:06:36;4.25;;;2.70;;
31382;SDS011;18014;49.228;11.102;2023-11-21T05:08:37;7.25;;;2.67;;
31382;SDS011;18014;49.228;11.102;2023-11-21T05:10:38;6.45;;;2.67;;
31382;SDS011;18014;49.228;11.102;2023-11-21T05:12:40;5.75;;;2.97;;
31382;SDS011;18014;49.228;11.102;2023-11-21T05:14:41;5.83;;;2.50;;
31382;SDS011;18014;49.228;11.102;2023-11-21T05:16:43;4.25;;;2.75;;
31382;SDS011;18014;49.228;11.102;2023-11-21T05:18:44;8.93;;;3.13;;
31382;SDS011;18014;49.228;11.102;2023-11-21T05:20:45;5.07;;;3.03;;
31382;SDS011;18014;49.228;11.102;2023-11-21T05:22:47;4.53;;;2.58;;
31382;SDS011;18014;49.228;11.102;2023-11-21T05:24:48;8.48;;;3.65;;
31382;SDS011;18014;49.228;11.102;2023-11-21T05:26:49;5.60;;;2.70;;
31382;SDS011;18014;49.228;11.102;2023-11-21T05:28:50;7.40;;;3.60;;
31382;SDS011;18014;49.228;11.102;2023-11-21T05:30:51;6.35;;;3.05;;
31382;SDS011;18014;49.228;11.102;2023-11-21T05:32:53;5.80;;;3.22;;
31382;SDS011;18014;49.228;11.102;2023-11-21T05:34:54;6.15;;;2.88;;
31382;SDS011;18014;49.228;11.102;2023-11-21T05:36:55;8.88;;;2.90;;
31382;SDS011;18014;49.228;11.102;2023-11-21T05:38:58;6.75;;;3.80;;
31382;SDS011;18014;49.228;11.102;2023-11-21T05:40:59;5.50;;;2.85;;
31382;SDS011;18014;49.228;11.102;2023-11-21T05:43:00;6.25;;;3.47;;
31382;SDS011;18014;49.228;11.102;2023-11-21T05:45:01;6.15;;;3.20;;
31382;SDS011;18014;49.228;11.102;2023-11-21T05:47:12;5.95;;;3.53;;
31382;SDS011;18014;49.228;11.102;2023-11-21T05:49:13;8.57;;;3.13;;
31382;SDS011;18014;49.228;11.102;2023-11-21T05:51:15;7.18;;;3.30;;
31382;SDS011;18014;49.228;11.102;2023-11-21T05:53:17;10.10;;;4.03;;
31382;SDS011;18014;49.228;11.102;2023-11-21T05:55:18;6.00;;;3.13;;
31382;SDS011;18014;49.228;11.102;2023-11-21T05:59:22;9.10;;;4.03;;
31382;SDS011;18014;49.228;11.102;2023-11-21T06:01:23;8.75;;;4.85;;
31382;SDS011;18014;49.228;11.102;2023-11-21T06:03:24;6.03;;;3.55;;
31382;SDS011;18014;49.228;11.102;2023-11-21T06:05:26;7.32;;;4.53;;
31382;SDS011;18014;49.228;11.102;2023-11-21T06:07:27;8.68;;;4.03;;
31382;SDS011;18014;49.228;11.102;2023-11-21T06:09:29;12.02;;;5.05;;
31382;SDS011;18014;49.228;11.102;2023-11-21T06:11:30;8.38;;;4.65;;
31382;SDS011;18014;49.228;11.102;2023-11-21T06:13:31;7.00;;;3.80;;
31382;SDS011;18014;49.228;11.102;2023-11-21T06:15:32;9.15;;;4.07;;
31382;SDS011;18014;49.228;11.102;2023-11-21T06:17:33;6.78;;;3.90;;
31382;SDS011;18014;49.228;11.102;2023-11-21T06:19:37;6.85;;;3.85;;
31382;SDS011;18014;49.228;11.102;2023-11-21T06:21:38;7.05;;;3.97;;
31382;SDS011;18014;49.228;11.102;2023-11-21T06:23:39;5.50;;;3.90;;
31382;SDS011;18014;49.228;11.102;2023-11-21T06:25:41;7.22;;;4.50;;
31382;SDS011;18014;49.228;11.102;2023-11-21T06:27:43;7.72;;;4.32;;
31382;SDS011;18014;49.228;11.102;2023-11-21T06:29:45;11.23;;;4.75;;
31382;SDS011;18014;49.228;11.102;2023-11-21T06:31:45;7.45;;;4.35;;
31382;SDS011;18014;49.228;11.102;2023-11-21T06:33:47;7.35;;;4.57;;
31382;SDS011;18014;49.228;11.102;2023-11-21T06:35:49;9.95;;;5.15;;
31382;SDS011;18014;49.228;11.102;2023-11-21T06:37:50;9.65;;;5.53;;
31382;SDS011;18014;49.228;11.102;2023-11-21T06:39:52;11.43;;;4.65;;
31382;SDS011;18014;49.228;11.102;2023-11-21T06:41:53;6.50;;;4.53;;
31382;SDS011;18014;49.228;11.102;2023-11-21T06:43:54;11.07;;;4.88;;
31382;SDS011;18014;49.228;11.102;2023-11-21T06:45:55;9.45;;;4.78;;
31382;SDS011;18014;49.228;11.102;2023-11-21T06:47:56;9.50;;;5.13;;
31382;SDS011;18014;49.228;11.102;2023-11-21T06:49:57;9.02;;;5.82;;
31382;SDS011;18014;49.228;11.102;2023-11-21T06:51:58;12.48;;;6.43;;
31382;SDS011;18014;49.228;11.102;2023-11-21T06:53:59;10.52;;;5.43;;
31382;SDS011;18014;49.228;11.102;2023-11-21T06:56:00;9.93;;;5.60;;
31382;SDS011;18014;49.228;11.102;2023-11-21T06:58:01;10.05;;;5.40;;
31382;SDS011;18014;49.228;11.102;2023-11-21T07:00:02;9.30;;;5.85;;
31382;SDS011;18014;49.228;11.102;2023-11-21T07:02:04;13.87;;;6.23;;
31382;SDS011;18014;49.228;11.102;2023-11-21T07:04:06;11.13;;;6.25;;
31382;SDS011;18014;49.228;11.102;2023-11-21T07:06:08;7.57;;;5.32;;
31382;SDS011;18014;49.228;11.102;2023-11-21T07:08:09;8.15;;;5.40;;
31382;SDS011;18014;49.228;11.102;2023-11-21T07:10:11;9.07;;;5.80;;
31382;SDS011;18014;49.228;11.102;2023-11-21T07:12:12;8.55;;;5.47;;
31382;SDS011;18014;49.228;11.102;2023-11-21T07:14:14;10.65;;;5.72;;
31382;SDS011;18014;49.228;11.102;2023-11-21T07:16:16;14.05;;;6.47;;
31382;SDS011;18014;49.228;11.102;2023-11-21T07:18:18;17.67;;;6.20;;
31382;SDS011;18014;49.228;11.102;2023-11-21T07:20:19;12.00;;;5.90;;
31382;SDS011;18014;49.228;11.102;2023-11-21T07:22:21;12.18;;;6.18;;
31382;SDS011;18014;49.228;11.102;2023-11-21T07:24:22;10.00;;;6.32;;
31382;SDS011;18014;49.228;11.102;2023-11-21T07:26:23;12.27;;;6.38;;
31382;SDS011;18014;49.228;11.102;2023-11-21T07:28:25;9.55;;;5.05;;
31382;SDS011;18014;49.228;11.102;2023-11-21T07:30:26;9.70;;;6.13;;
31382;SDS011;18014;49.228;11.102;2023-11-21T07:32:27;12.25;;;6.50;;
31382;SDS011;18014;49.228;11.102;2023-11-21T07:34:28;12.40;;;5.70;;
31382;SDS011;18014;49.228;11.102;2023-11-21T07:36:29;12.15;;;6.32;;
31382;SDS011;18014;49.228;11.102;2023-11-21T07:38:30;15.93;;;6.10;;
31382;SDS011;18014;49.228;11.102;2023-11-21T07:40:33;9.57;;;5.93;;
31382;SDS011;18014;49.228;11.102;2023-11-21T07:42:34;8.13;;;5.90;;
31382;SDS011;18014;49.228;11.102;2023-11-21T07:44:35;10.95;;;6.00;;
31382;SDS011;18014;49.228;11.102;2023-11-21T07:46:36;8.90;;;5.70;;
31382;SDS011;18014;49.228;11.102;2023-11-21T07:48:38;8.50;;;5.55;;
31382;SDS011;18014;49.228;11.102;2023-11-21T07:50:39;11.20;;;5.90;;
31382;SDS011;18014;49.228;11.102;2023-11-21T07:52:40;13.73;;;7.03;;
31382;SDS011;18014;49.228;11.102;2023-11-21T07:54:41;13.55;;;7.13;;
31382;SDS011;18014;49.228;11.102;2023-11-21T07:56:43;10.90;;;6.85;;
31382;SDS011;18014;49.228;11.102;2023-11-21T07:58:45;12.90;;;7.35;;
31382;SDS011;18014;49.228;11.102;2023-11-21T08:00:46;15.13;;;8.05;;
31382;SDS011;18014;49.228;11.102;2023-11-21T08:02:47;11.80;;;7.70;;
31382;SDS011;18014;49.228;11.102;2023-11-21T08:04:48;9.60;;;6.75;;
31382;SDS011;18014;49.228;11.102;2023-11-21T08:06:49;13.13;;;7.43;;
31382;SDS011;18014;49.228;11.102;2023-11-21T08:08:51;12.77;;;7.90;;
31382;SDS011;18014;49.228;11.102;2023-11-21T08:10:52;12.65;;;7.38;;
31382;SDS011;18014;49.228;11.102;2023-11-21T08:13:01;15.02;;;8.07;;
31382;SDS011;18014;49.228;11.102;2023-11-21T08:17:05;15.45;;;9.07;;
31382;SDS011;18014;49.228;11.102;2023-11-21T08:19:06;11.43;;;8.23;;
31382;SDS011;18014;49.228;11.102;2023-11-21T08:21:09;13.63;;;8.00;;
31382;SDS011;18014;49.228;11.102;2023-11-21T08:25:15;13.65;;;7.97;;
31382;SDS011;18014;49.228;11.102;2023-11-21T08:27:19;12.90;;;8.23;;
31382;SDS011;18014;49.228;11.102;2023-11-21T08:29:20;12.23;;;7.68;;
31382;SDS011;18014;49.228;11.102;2023-11-21T08:31:23;9.55;;;6.88;;
31382;SDS011;18014;49.228;11.102;2023-11-21T08:33:27;11.20;;;7.43;;
31382;SDS011;18014;49.228;11.102;2023-11-21T08:35:28;10.52;;;8.20;;
31382;SDS011;18014;49.228;11.102;2023-11-21T08:37:29;10.00;;;6.93;;
31382;SDS011;18014;49.228;11.102;2023-11-21T08:39:30;10.68;;;6.28;;
31382;SDS011;18014;49.228;11.102;2023-11-21T08:41:31;11.82;;;7.60;;
31382;SDS011;18014;49.228;11.102;2023-11-21T08:43:33;12.32;;;7.18;;
31382;SDS011;18014;49.228;11.102;2023-11-21T08:45:35;12.73;;;7.18;;
31382;SDS011;18014;49.228;11.102;2023-11-21T08:47:36;10.65;;;6.65;;
31382;SDS011;18014;49.228;11.102;2023-11-21T08:49:37;10.00;;;5.85;;
31382;SDS011;18014;49.228;11.102;2023-11-21T08:51:38;8.93;;;5.28;;
31382;SDS011;18014;49.228;11.102;2023-11-21T08:53:39;9.50;;;6.00;;
31382;SDS011;18014;49.228;11.102;2023-11-21T08:55:40;11.10;;;5.70;;
31382;SDS011;18014;49.228;11.102;2023-11-21T08:57:42;10.70;;;6.35;;
31382;SDS011;18014;49.228;11.102;2023-11-21T08:59:45;6.63;;;5.30;;
31382;SDS011;18014;49.228;11.102;2023-11-21T09:01:46;7.15;;;5.13;;
31382;SDS011;18014;49.228;11.102;2023-11-21T09:03:47;10.35;;;5.20;;
31382;SDS011;18014;49.228;11.102;2023-11-21T09:05:50;5.60;;;4.65;;
31382;SDS011;18014;49.228;11.102;2023-11-21T09:07:51;6.20;;;4.85;;
31382;SDS011;18014;49.228;11.102;2023-11-21T09:09:52;6.97;;;5.32;;
31382;SDS011;18014;49.228;11.102;2023-11-21T09:11:54;9.85;;;4.78;;
31382;SDS011;18014;49.228;11.102;2023-11-21T09:13:55;22.92;;;13.45;;
31382;SDS011;18014;49.228;11.102;2023-11-21T09:15:57;8.23;;;5.72;;
31382;SDS011;18014;49.228;11.102;2023-11-21T09:17:58;8.77;;;4.20;;
31382;SDS011;18014;49.228;11.102;2023-11-21T09:20:00;6.00;;;4.03;;
31382;SDS011;18014;49.228;11.102;2023-11-21T09:22:03;5.68;;;4.03;;
31382;SDS011;18014;49.228;11.102;2023-11-21T09:24:05;6.32;;;4.53;;
31382;SDS011;18014;49.228;11.102;2023-11-21T09:26:06;6.95;;;4.10;;
31382;SDS011;18014;49.228;11.102;2023-11-21T09:28:07;7.55;;;4.65;;
31382;SDS011;18014;49.228;11.102;2023-11-21T09:30:08;8.10;;;4.85;;
31382;SDS011;18014;49.228;11.102;2023-11-21T09:32:10;7.28;;;4.05;;
31382;SDS011;18014;49.228;11.102;2023-11-21T09:34:11;4.90;;;3.78;;
31382;SDS011;18014;49.228;11.102;2023-11-21T09:36:12;7.30;;;5.50;;
31382;SDS011;18014;49.228;11.102;2023-11-21T09:38:16;13.95;;;5.90;;
31382;SDS011;18014;49.228;11.102;2023-11-21T09:40:17;9.77;;;5.25;;
31382;SDS011;18014;49.228;11.102;2023-11-21T09:42:25;6.95;;;4.75;;
31382;SDS011;18014;49.228;11.102;2023-11-21T09:44:50;6.78;;;4.88;;
31382;SDS011;18014;49.228;11.102;2023-11-21T09:47:04;7.55;;;4.63;;
31382;SDS011;18014;49.228;11.102;2023-11-21T09:49:10;7.35;;;4.72;;
31382;SDS011;18014;49.228;11.102;2023-11-21T09:51:13;5.05;;;3.90;;
31382;SDS011;18014;49.228;11.102;2023-11-21T09:55:18;9.80;;;5.30;;
31382;SDS011;18014;49.228;11.102;2023-11-21T09:57:21;5.57;;;3.95;;
31382;SDS011;18014;49.228;11.102;2023-11-21T09:59:22;6.38;;;4.18;;
31382;SDS011;18014;49.228;11.102;2023-11-21T10:01:23;8.32;;;4.72;;
31382;SDS011;18014;49.228;11.102;2023-11-21T10:03:28;7.90;;;4.90;;
31382;SDS011;18014;49.228;11.102;2023-11-21T10:05:30;4.28;;;3.78;;
31382;SDS011;18014;49.228;11.102;2023-11-21T10:07:34;4.63;;;3.80;;
31382;SDS011;18014;49.228;11.102;2023-11-21T10:09:36;6.53;;;3.90;;
31382;SDS011;18014;49.228;11.102;2023-11-21T10:11:41;5.68;;;3.85;;
31382;SDS011;18014;49.228;11.102;2023-11-21T10:13:43;5.97;;;3.92;;
31382;SDS011;18014;49.228;11.102;2023-11-21T10:15:49;4.65;;;3.35;;
31382;SDS011;18014;49.228;11.102;2023-11-21T10:17:52;6.53;;;3.42;;
31382;SDS011;18014;49.228;11.102;2023-11-21T10:19:53;4.33;;;3.37;;
31382;SDS011;18014;49.228;11.102;2023-11-21T10:21:56;6.68;;;3.58;;
31382;SDS011;18014;49.228;11.102;2023-11-21T10:23:59;4.97;;;3.45;;
31382;SDS011;18014;49.228;11.102;2023-11-21T10:26:01;5.60;;;3.85;;
31382;SDS011;18014;49.228;11.102;2023-11-21T10:28:02;7.93;;;3.75;;
31382;SDS011;18014;49.228;11.102;2023-11-21T10:30:07;5.43;;;2.97;;
31382;SDS011;18014;49.228;11.102;2023-11-21T10:32:11;8.07;;;4.07;;
31382;SDS011;18014;49.228;11.102;2023-11-21T10:34:16;9.13;;;4.60;;
31382;SDS011;18014;49.228;11.102;2023-11-21T10:36:25;5.68;;;4.28;;
31382;SDS011;18014;49.228;11.102;2023-11-21T10:38:27;5.78;;;4.07;;
31382;SDS011;18014;49.228;11.102;2023-11-21T10:40:30;5.85;;;3.97;;
31382;SDS011;18014;49.228;11.102;2023-11-21T10:42:32;5.75;;;3.38;;
31382;SDS011;18014;49.228;11.102;2023-11-21T10:44:33;4.00;;;3.35;;
31382;SDS011;18014;49.228;11.102;2023-11-21T10:46:34;8.27;;;4.28;;
31382;SDS011;18014;49.228;11.102;2023-11-21T10:48:35;6.72;;;3.75;;
31382;SDS011;18014;49.228;11.102;2023-11-21T10:50:37;6.13;;;4.20;;
31382;SDS011;18014;49.228;11.102;2023-11-21T10:52:41;7.00;;;4.15;;
31382;SDS011;18014;49.228;11.102;2023-11-21T10:54:46;6.95;;;3.72;;
31382;SDS011;18014;49.228;11.102;2023-11-21T10:56:53;7.80;;;4.40;;
31382;SDS011;18014;49.228;11.102;2023-11-21T10:58:59;6.38;;;4.30;;
31382;SDS011;18014;49.228;11.102;2023-11-21T11:01:00;6.85;;;3.65;;
31382;SDS011;18014;49.228;11.102;2023-11-21T11:03:03;4.68;;;3.63;;
31382;SDS011;18014;49.228;11.102;2023-11-21T11:05:05;5.80;;;4.03;;
31382;SDS011;18014;49.228;11.102;2023-11-21T11:07:07;5.25;;;3.10;;
31382;SDS011;18014;49.228;11.102;2023-11-21T11:09:12;5.68;;;3.45;;
31382;SDS011;18014;49.228;11.102;2023-11-21T11:11:14;6.85;;;3.80;;
31382;SDS011;18014;49.228;11.102;2023-11-21T11:13:15;6.15;;;3.40;;
31382;SDS011;18014;49.228;11.102;2023-11-21T11:15:16;4.93;;;3.30;;
31382;SDS011;18014;49.228;11.102;2023-11-21T11:17:18;4.82;;;3.40;;
31382;SDS011;18014;49.228;11.102;2023-11-21T11:19:22;4.82;;;3.75;;
31382;SDS011;18014;49.228;11.102;2023-11-21T11:21:26;4.25;;;3.53;;
31382;SDS011;18014;49.228;11.102;2023-11-21T11:28:19;4.38;;;3.67;;
31382;SDS011;18014;49.228;11.102;2023-11-21T11:30:32;4.38;;;3.05;;
31382;SDS011;18014;49.228;11.102;2023-11-21T11:35:26;5.43;;;3.13;;
31382;SDS011;18014;49.228;11.102;2023-11-21T11:37:37;6.47;;;3.80;;
31382;SDS011;18014;49.228;11.102;2023-11-21T11:39:39;5.63;;;4.10;;
31382;SDS011;18014;49.228;11.102;2023-11-21T11:41:44;6.38;;;3.97;;
31382;SDS011;18014;49.228;11.102;2023-11-21T11:43:45;4.72;;;3.72;;
31382;SDS011;18014;49.228;11.102;2023-11-21T11:45:46;4.32;;;3.20;;
31382;SDS011;18014;49.228;11.102;2023-11-21T11:47:56;5.32;;;3.97;;
31382;SDS011;18014;49.228;11.102;2023-11-21T11:54:34;5.53;;;3.90;;
31382;SDS011;18014;49.228;11.102;2023-11-21T11:56:36;4.38;;;3.78;;
31382;SDS011;18014;49.228;11.102;2023-11-21T11:58:38;7.32;;;3.35;;
31382;SDS011;18014;49.228;11.102;2023-11-21T12:00:40;9.13;;;3.70;;
31382;SDS011;18014;49.228;11.102;2023-11-21T12:02:49;4.07;;;3.60;;
31382;SDS011;18014;49.228;11.102;2023-11-21T12:04:55;5.20;;;4.13;;
31382;SDS011;18014;49.228;11.102;2023-11-21T12:06:57;6.40;;;4.13;;
31382;SDS011;18014;49.228;11.102;2023-11-21T12:09:02;6.15;;;4.20;;
31382;SDS011;18014;49.228;11.102;2023-11-21T12:11:06;7.10;;;5.13;;
31382;SDS011;18014;49.228;11.102;2023-11-21T12:13:08;6.15;;;5.10;;
31382;SDS011;18014;49.228;11.102;2023-11-21T12:15:12;8.68;;;5.57;;
31382;SDS011;18014;49.228;11.102;2023-11-21T12:17:13;6.70;;;5.28;;
31382;SDS011;18014;49.228;11.102;2023-11-21T12:19:15;7.63;;;5.73;;
31382;SDS011;18014;49.228;11.102;2023-11-21T12:21:16;11.80;;;5.80;;
31382;SDS011;18014;49.228;11.102;2023-11-21T12:23:17;9.85;;;6.35;;
31382;SDS011;18014;49.228;11.102;2023-11-21T12:25:19;9.10;;;6.65;;